sensor_id;sensor_type;location;lat;lon;timestamp;temperature;humidity
15815;DHT22;8008;50.024;8.172;2023-12-28T04:00:12;7.40;99.90
15815;DHT22;8008;50.024;8.172;2023-12-28T04:02:41;7.40;99.90
15815;DHT22;8008;50.024;8.172;2023-12-28T04:05:09;7.40;99.90
15815;DHT22;8008;50.024;8.172;2023-12-28T04:07:37;7.50;99.90
15815;DHT22;8008;50.024;8.172;2023-12-28T04:10:06;7.60;99.90
15815;DHT22;8008;50.024;8.172;2023-12-28T04:12:34;7.70;99.90
15815;DHT22;8008;50.024;8.172;2023-12-28T04:15:04;7.80;99.90
15815;DHT22;8008;50.024;8.172;2023-12-28T04:17:34;7.80;99.90
15815;DHT22;8008;50.024;8.172;2023-12-28T04:20:02;7.80;99.90
15815;DHT22;8008;50.024;8.172;2023-12-28T04:22:30;7.90;99.90
15815;DHT22;8008;50.024;8.172;2023-12-28T04:24:59;7.90;99.90
15815;DHT22;8008;50.024;8.172;2023-12-28T04:27:27;7.90;99.90
15815;DHT22;8008;50.024;8.172;2023-12-28T04:29:55;7.90;99.90
15815;DHT22;8008;50.024;8.172;2023-12-28T04:32:23;7.90;99.90
15815;DHT22;8008;50.024;8.172;2023-12-28T04:34:53;7.80;99.90
15815;DHT22;8008;50.024;8.172;2023-12-28T04:37:21;7.80;99.90
15815;DHT22;8008;50.024;8.172;2023-12-28T04:39:49;7.80;99.90
15815;DHT22;8008;50.024;8.172;2023-12-28T04:42:17;7.90;99.90
15815;DHT22;8008;50.024;8.172;2023-12-28T04:44:45;7.90;99.90
15815;DHT22;8008;50.024;8.172;2023-12-28T04:47:13;7.90;99.90
15815;DHT22;8008;50.024;8.172;2023-12-28T04:49:41;7.90;99.90
15815;DHT22;8008;50.024;8.172;2023-12-28T04:52:11;7.90;99.90
15815;DHT22;8008;50.024;8.172;2023-12-28T04:54:40;7.90;99.90
15815;DHT22;8008;50.024;8.172;2023-12-28T04:57:08;7.90;99.90
15815;DHT22;8008;50.024;8.172;2023-12-28T04:59:38;8.00;99.90
15815;DHT22;8008;50.024;8.172;2023-12-28T05:02:06;8.00;99.90
15815;DHT22;8008;50.024;8.172;2023-12-28T05:04:37;8.00;99.90
15815;DHT22;8008;50.024;8.172;2023-12-28T05:07:05;8.10;99.90
15815;DHT22;8008;50.024;8.172;2023-12-28T05:09:34;8.10;99.90
15815;DHT22;8008;50.024;8.172;2023-12-28T05:12:03;8.10;99.90
15815;DHT22;8008;50.024;8.172;2023-12-28T05:14:31;8.10;99.90
15815;DHT22;8008;50.024;8.172;2023-12-28T05:16:59;8.20;99.90
15815;DHT22;8008;50.024;8.172;2023-12-28T05:19:27;8.20;99.90
15815;DHT22;8008;50.024;8.172;2023-12-28T05:21:55;8.20;99.90
15815;DHT22;8008;50.024;8.172;2023-12-28T05:24:23;8.30;99.90
15815;DHT22;8008;50.024;8.172;2023-12-28T05:26:53;8.30;99.90
15815;DHT22;8008;50.024;8.172;2023-12-28T05:29:21;8.30;99.90
15815;DHT22;8008;50.024;8.172;2023-12-28T05:31:49;8.30;99.90
15815;DHT22;8008;50.024;8.172;2023-12-28T05:34:16;8.40;99.90
15815;DHT22;8008;50.024;8.172;2023-12-28T05:36:44;8.30;99.90
15815;DHT22;8008;50.024;8.172;2023-12-28T05:39:13;8.30;99.90
15815;DHT22;8008;50.024;8.172;2023-12-28T05:41:41;8.30;99.90
15815;DHT22;8008;50.024;8.172;2023-12-28T05:44:10;8.20;99.90
15815;DHT22;8008;50.024;8.172;2023-12-28T05:46:38;8.20;99.90
15815;DHT22;8008;50.024;8.172;2023-12-28T05:49:06;8.10;99.90
15815;DHT22;8008;50.024;8.172;2023-12-28T05:51:37;8.10;99.90
15815;DHT22;8008;50.024;8.172;2023-12-28T05:54:06;8.10;99.90
15815;DHT22;8008;50.024;8.172;2023-12-28T05:56:35;8.10;99.90
15815;DHT22;8008;50.024;8.172;2023-12-28T05:59:03;8.10;99.90
15815;DHT22;8008;50.024;8.172;2023-12-28T06:01:40;8.10;99.90
15815;DHT22;8008;50.024;8.172;2023-12-28T06:04:09;8.10;99.90
15815;DHT22;8008;50.024;8.172;2023-12-28T06:06:37;8.10;99.90
15815;DHT22;8008;50.024;8.172;2023-12-28T06:09:05;8.10;99.90
15815;DHT22;8008;50.024;8.172;2023-12-28T06:11:33;8.10;99.90
15815;DHT22;8008;50.024;8.172;2023-12-28T06:14:01;8.10;99.90
15815;DHT22;8008;50.024;8.172;2023-12-28T06:16:29;8.10;99.90
15815;DHT22;8008;50.024;8.172;2023-12-28T06:19:01;8.10;99.90
15815;DHT22;8008;50.024;8.172;2023-12-28T06:21:29;8.10;99.90
15815;DHT22;8008;50.024;8.172;2023-12-28T06:23:58;8.10;99.90
15815;DHT22;8008;50.024;8.172;2023-12-28T06:26:26;8.10;99.90
15815;DHT22;8008;50.024;8.172;2023-12-28T06:28:54;8.10;99.90
15815;DHT22;8008;50.024;8.172;2023-12-28T06:31:22;8.10;99.90
15815;DHT22;8008;50.024;8.172;2023-12-28T06:33:50;8.10;99.90
15815;DHT22;8008;50.024;8.172;2023-12-28T06:36:19;8.10;99.90
15815;DHT22;8008;50.024;8.172;2023-12-28T06:38:48;8.10;99.90
15815;DHT22;8008;50.024;8.172;2023-12-28T06:41:15;8.10;99.90
15815;DHT22;8008;50.024;8.172;2023-12-28T06:43:43;8.10;99.90
15815;DHT22;8008;50.024;8.172;2023-12-28T06:46:11;8.10;99.90
15815;DHT22;8008;50.024;8.172;2023-12-28T06:48:39;8.10;99.90
15815;DHT22;8008;50.024;8.172;2023-12-28T06:51:08;8.10;99.90
15815;DHT22;8008;50.024;8.172;2023-12-28T06:53:39;8.10;99.90
15815;DHT22;8008;50.024;8.172;2023-12-28T06:56:07;8.10;99.90
15815;DHT22;8008;50.024;8.172;2023-12-28T06:58:35;8.10;99.90
15815;DHT22;8008;50.024;8.172;2023-12-28T07:01:03;8.00;99.90
15815;DHT22;8008;50.024;8.172;2023-12-28T07:03:31;8.10;99.90
15815;DHT22;8008;50.024;8.172;2023-12-28T07:05:59;8.00;99.90
15815;DHT22;8008;50.024;8.172;2023-12-28T07:08:27;8.10;99.90
15815;DHT22;8008;50.024;8.172;2023-12-28T07:10:59;8.00;99.90
15815;DHT22;8008;50.024;8.172;2023-12-28T07:13:27;8.10;99.90
15815;DHT22;8008;50.024;8.172;2023-12-28T07:15:56;8.10;99.90
15815;DHT22;8008;50.024;8.172;2023-12-28T07:18:26;8.10;99.90
15815;DHT22;8008;50.024;8.172;2023-12-28T07:20:55;8.10;99.90
15815;DHT22;8008;50.024;8.172;2023-12-28T07:23:23;8.10;99.90
15815;DHT22;8008;50.024;8.172;2023-12-28T07:25:51;8.10;99.90
15815;DHT22;8008;50.024;8.172;2023-12-28T07:28:20;8.20;99.90
15815;DHT22;8008;50.024;8.172;2023-12-28T07:30:48;8.20;99.90
15815;DHT22;8008;50.024;8.172;2023-12-28T07:33:16;8.20;99.90
15815;DHT22;8008;50.024;8.172;2023-12-28T07:35:45;8.30;99.90
15815;DHT22;8008;50.024;8.172;2023-12-28T07:38:13;8.30;99.90
15815;DHT22;8008;50.024;8.172;2023-12-28T07:40:41;8.30;99.90
15815;DHT22;8008;50.024;8.172;2023-12-28T07:43:09;8.30;99.90
15815;DHT22;8008;50.024;8.172;2023-12-28T07:45:38;8.30;99.90
15815;DHT22;8008;50.024;8.172;2023-12-28T07:48:07;8.30;99.90
15815;DHT22;8008;50.024;8.172;2023-12-28T07:50:35;8.30;99.90
15815;DHT22;8008;50.024;8.172;2023-12-28T07:53:03;8.30;99.90
15815;DHT22;8008;50.024;8.172;2023-12-28T07:55:31;8.20;99.90
15815;DHT22;8008;50.024;8.172;2023-12-28T07:57:59;8.20;99.90
15815;DHT22;8008;50.024;8.172;2023-12-28T08:00:28;8.20;99.90
15815;DHT22;8008;50.024;8.172;2023-12-28T08:02:57;8.10;99.90
15815;DHT22;8008;50.024;8.172;2023-12-28T08:05:25;8.10;99.90
15815;DHT22;8008;50.024;8.172;2023-12-28T08:07:53;8.10;99.90
15815;DHT22;8008;50.024;8.172;2023-12-28T08:10:21;8.10;99.90
15815;DHT22;8008;50.024;8.172;2023-12-28T08:12:49;8.10;99.90
15815;DHT22;8008;50.024;8.172;2023-12-28T08:15:17;8.10;99.90
15815;DHT22;8008;50.024;8.172;2023-12-28T08:17:45;8.10;99.90
15815;DHT22;8008;50.024;8.172;2023-12-28T08:20:15;8.00;99.90
15815;DHT22;8008;50.024;8.172;2023-12-28T08:22:43;8.00;99.90
15815;DHT22;8008;50.024;8.172;2023-12-28T08:25:11;7.90;99.90
15815;DHT22;8008;50.024;8.172;2023-12-28T08:27:39;8.00;99.90
15815;DHT22;8008;50.024;8.172;2023-12-28T08:30:08;8.00;99.90
15815;DHT22;8008;50.024;8.172;2023-12-28T08:32:39;8.00;99.90
15815;DHT22;8008;50.024;8.172;2023-12-28T08:35:07;8.00;99.90
15815;DHT22;8008;50.024;8.172;2023-12-28T08:37:37;8.00;99.90
15815;DHT22;8008;50.024;8.172;2023-12-28T08:40:06;8.00;99.90
15815;DHT22;8008;50.024;8.172;2023-12-28T08:42:34;8.10;99.90
15815;DHT22;8008;50.024;8.172;2023-12-28T08:45:02;8.10;99.90
15815;DHT22;8008;50.024;8.172;2023-12-28T08:47:30;8.10;99.90
15815;DHT22;8008;50.024;8.172;2023-12-28T08:49:58;8.10;99.90
15815;DHT22;8008;50.024;8.172;2023-12-28T08:52:26;8.10;99.90
15815;DHT22;8008;50.024;8.172;2023-12-28T08:54:55;8.10;99.90
15815;DHT22;8008;50.024;8.172;2023-12-28T08:57:24;8.20;99.90
15815;DHT22;8008;50.024;8.172;2023-12-28T09:00:08;8.30;99.90
15815;DHT22;8008;50.024;8.172;2023-12-28T09:02:37;8.40;99.90
15815;DHT22;8008;50.024;8.172;2023-12-28T09:05:05;8.50;99.90
15815;DHT22;8008;50.024;8.172;2023-12-28T09:07:33;8.40;99.90
15815;DHT22;8008;50.024;8.172;2023-12-28T09:10:04;8.40;99.90
15815;DHT22;8008;50.024;8.172;2023-12-28T09:12:33;8.50;99.90
15815;DHT22;8008;50.024;8.172;2023-12-28T09:15:01;8.50;99.90
15815;DHT22;8008;50.024;8.172;2023-12-28T09:17:29;8.50;99.90
15815;DHT22;8008;50.024;8.172;2023-12-28T09:19:57;8.50;99.90
15815;DHT22;8008;50.024;8.172;2023-12-28T09:22:25;8.60;99.90
15815;DHT22;8008;50.024;8.172;2023-12-28T09:24:57;8.60;99.90
15815;DHT22;8008;50.024;8.172;2023-12-28T09:27:26;8.60;99.90
15815;DHT22;8008;50.024;8.172;2023-12-28T09:29:54;8.60;99.90
15815;DHT22;8008;50.024;8.172;2023-12-28T09:32:22;8.70;99.90
15815;DHT22;8008;50.024;8.172;2023-12-28T09:34:50;8.70;99.90
15815;DHT22;8008;50.024;8.172;2023-12-28T09:37:18;8.70;99.90
15815;DHT22;8008;50.024;8.172;2023-12-28T09:39:46;8.70;99.90
15815;DHT22;8008;50.024;8.172;2023-12-28T09:42:17;8.70;99.90
15815;DHT22;8008;50.024;8.172;2023-12-28T09:44:48;8.80;99.90
15815;DHT22;8008;50.024;8.172;2023-12-28T09:47:17;8.80;99.90
15815;DHT22;8008;50.024;8.172;2023-12-28T09:49:45;8.80;99.90
15815;DHT22;8008;50.024;8.172;2023-12-28T09:52:14;8.90;99.90
15815;DHT22;8008;50.024;8.172;2023-12-28T09:54:43;9.00;99.90
15815;DHT22;8008;50.024;8.172;2023-12-28T09:57:11;9.00;99.90
15815;DHT22;8008;50.024;8.172;2023-12-28T09:59:40;9.00;99.90
15815;DHT22;8008;50.024;8.172;2023-12-28T10:02:10;9.10;99.90
15815;DHT22;8008;50.024;8.172;2023-12-28T10:04:38;9.10;99.90
15815;DHT22;8008;50.024;8.172;2023-12-28T10:07:06;9.10;99.90
15815;DHT22;8008;50.024;8.172;2023-12-28T10:09:34;9.10;99.90
15815;DHT22;8008;50.024;8.172;2023-12-28T10:12:03;9.20;99.90
15815;DHT22;8008;50.024;8.172;2023-12-28T10:14:31;9.30;99.90
15815;DHT22;8008;50.024;8.172;2023-12-28T10:16:59;9.30;99.90
15815;DHT22;8008;50.024;8.172;2023-12-28T10:19:28;9.40;99.90
15815;DHT22;8008;50.024;8.172;2023-12-28T10:21:56;9.50;99.90
15815;DHT22;8008;50.024;8.172;2023-12-28T10:24:24;9.60;99.90
15815;DHT22;8008;50.024;8.172;2023-12-28T10:26:52;9.70;99.90
15815;DHT22;8008;50.024;8.172;2023-12-28T10:29:24;9.80;99.90
15815;DHT22;8008;50.024;8.172;2023-12-28T10:31:52;9.80;99.90
15815;DHT22;8008;50.024;8.172;2023-12-28T10:34:20;9.90;99.90
15815;DHT22;8008;50.024;8.172;2023-12-28T10:36:51;9.90;99.90
15815;DHT22;8008;50.024;8.172;2023-12-28T10:39:20;10.00;99.90
15815;DHT22;8008;50.024;8.172;2023-12-28T10:41:49;10.00;99.90
15815;DHT22;8008;50.024;8.172;2023-12-28T10:44:20;10.10;99.90
15815;DHT22;8008;50.024;8.172;2023-12-28T10:46:50;10.10;99.90
15815;DHT22;8008;50.024;8.172;2023-12-28T10:49:25;10.10;99.90
15815;DHT22;8008;50.024;8.172;2023-12-28T10:51:55;10.20;99.90
15815;DHT22;8008;50.024;8.172;2023-12-28T10:54:32;10.20;99.90
15815;DHT22;8008;50.024;8.172;2023-12-28T10:57:09;10.30;99.90
15815;DHT22;8008;50.024;8.172;2023-12-28T10:59:46;10.30;99.90
15815;DHT22;8008;50.024;8.172;2023-12-28T11:02:17;10.40;99.90
15815;DHT22;8008;50.024;8.172;2023-12-28T11:04:49;10.40;99.90
15815;DHT22;8008;50.024;8.172;2023-12-28T11:07:21;10.40;99.90
15815;DHT22;8008;50.024;8.172;2023-12-28T11:09:49;10.50;99.90
15815;DHT22;8008;50.024;8.172;2023-12-28T11:12:19;10.50;99.90
15815;DHT22;8008;50.024;8.172;2023-12-28T11:14:48;10.60;99.90
15815;DHT22;8008;50.024;8.172;2023-12-28T11:17:17;10.60;99.90
15815;DHT22;8008;50.024;8.172;2023-12-28T11:19:48;10.60;99.90
15815;DHT22;8008;50.024;8.172;2023-12-28T11:22:16;10.70;99.90
15815;DHT22;8008;50.024;8.172;2023-12-28T11:24:46;10.80;99.90
15815;DHT22;8008;50.024;8.172;2023-12-28T11:27:14;10.70;99.90
15815;DHT22;8008;50.024;8.172;2023-12-28T11:29:42;10.80;99.90
15815;DHT22;8008;50.024;8.172;2023-12-28T11:32:11;10.80;99.90
15815;DHT22;8008;50.024;8.172;2023-12-28T11:34:39;10.80;99.90
15815;DHT22;8008;50.024;8.172;2023-12-28T11:37:08;10.80;99.90
15815;DHT22;8008;50.024;8.172;2023-12-28T11:39:41;10.80;99.90
15815;DHT22;8008;50.024;8.172;2023-12-28T11:42:19;10.80;99.90
15815;DHT22;8008;50.024;8.172;2023-12-28T11:44:47;10.80;99.90
15815;DHT22;8008;50.024;8.172;2023-12-28T11:47:21;10.70;99.90
15815;DHT22;8008;50.024;8.172;2023-12-28T11:49:49;10.70;99.90
15815;DHT22;8008;50.024;8.172;2023-12-28T11:52:23;10.70;99.90
15815;DHT22;8008;50.024;8.172;2023-12-28T11:54:51;10.70;99.90
15815;DHT22;8008;50.024;8.172;2023-12-28T11:57:21;10.70;99.90
15815;DHT22;8008;50.024;8.172;2023-12-28T11:59:53;10.80;99.90
15815;DHT22;8008;50.024;8.172;2023-12-28T12:02:21;10.80;99.90
15815;DHT22;8008;50.024;8.172;2023-12-28T12:04:51;10.80;99.90
15815;DHT22;8008;50.024;8.172;2023-12-28T12:07:21;10.90;99.90
15815;DHT22;8008;50.024;8.172;2023-12-28T12:09:53;11.00;99.90
15815;DHT22;8008;50.024;8.172;2023-12-28T12:12:24;11.00;99.90
15815;DHT22;8008;50.024;8.172;2023-12-28T12:14:52;11.00;99.90
15815;DHT22;8008;50.024;8.172;2023-12-28T12:17:20;11.10;99.90
15815;DHT22;8008;50.024;8.172;2023-12-28T12:19:48;11.10;99.90
15815;DHT22;8008;50.024;8.172;2023-12-28T12:22:18;11.10;99.90
15815;DHT22;8008;50.024;8.172;2023-12-28T12:24:47;11.10;99.90
15815;DHT22;8008;50.024;8.172;2023-12-28T12:27:17;11.20;99.90
15815;DHT22;8008;50.024;8.172;2023-12-28T12:29:46;11.20;99.90
15815;DHT22;8008;50.024;8.172;2023-12-28T12:32:14;11.20;99.90
15815;DHT22;8008;50.024;8.172;2023-12-28T12:34:42;11.30;99.90
15815;DHT22;8008;50.024;8.172;2023-12-28T12:37:10;11.20;99.90
15815;DHT22;8008;50.024;8.172;2023-12-28T12:39:39;11.20;99.90
15815;DHT22;8008;50.024;8.172;2023-12-28T12:42:07;11.10;99.90
15815;DHT22;8008;50.024;8.172;2023-12-28T12:44:34;11.10;99.90
15815;DHT22;8008;50.024;8.172;2023-12-28T12:47:04;11.10;99.90
15815;DHT22;8008;50.024;8.172;2023-12-28T12:49:32;11.10;99.90
15815;DHT22;8008;50.024;8.172;2023-12-28T12:52:01;11.10;99.90
15815;DHT22;8008;50.024;8.172;2023-12-28T12:54:31;11.10;99.90
15815;DHT22;8008;50.024;8.172;2023-12-28T12:56:59;11.10;99.90
15815;DHT22;8008;50.024;8.172;2023-12-28T12:59:27;11.10;99.90
15815;DHT22;8008;50.024;8.172;2023-12-28T13:01:55;11.00;99.90
15815;DHT22;8008;50.024;8.172;2023-12-28T13:04:24;10.90;99.90
15815;DHT22;8008;50.024;8.172;2023-12-28T13:06:54;10.90;99.90
15815;DHT22;8008;50.024;8.172;2023-12-28T13:09:22;10.90;99.90
15815;DHT22;8008;50.024;8.172;2023-12-28T13:11:50;10.90;99.90
15815;DHT22;8008;50.024;8.172;2023-12-28T13:14:18;10.90;99.90
15815;DHT22;8008;50.024;8.172;2023-12-28T13:16:47;10.90;99.90
15815;DHT22;8008;50.024;8.172;2023-12-28T13:19:25;10.90;99.90
15815;DHT22;8008;50.024;8.172;2023-12-28T13:21:55;10.90;99.90
15815;DHT22;8008;50.024;8.172;2023-12-28T13:24:23;10.90;99.90
15815;DHT22;8008;50.024;8.172;2023-12-28T13:26:51;10.90;99.90
15815;DHT22;8008;50.024;8.172;2023-12-28T13:29:19;10.90;99.90
15815;DHT22;8008;50.024;8.172;2023-12-28T13:31:47;10.90;99.90
15815;DHT22;8008;50.024;8.172;2023-12-28T13:34:17;11.00;99.90
15815;DHT22;8008;50.024;8.172;2023-12-28T13:36:47;11.00;99.90
15815;DHT22;8008;50.024;8.172;2023-12-28T13:39:15;11.00;99.90
15815;DHT22;8008;50.024;8.172;2023-12-28T13:41:44;11.00;99.90
15815;DHT22;8008;50.024;8.172;2023-12-28T13:44:12;10.90;99.90
15815;DHT22;8008;50.024;8.172;2023-12-28T13:46:40;10.90;99.90
15815;DHT22;8008;50.024;8.172;2023-12-28T13:49:08;10.80;99.90
15815;DHT22;8008;50.024;8.172;2023-12-28T13:51:36;10.80;99.90
15815;DHT22;8008;50.024;8.172;2023-12-28T13:54:06;10.80;99.90
15815;DHT22;8008;50.024;8.172;2023-12-28T13:56:34;10.80;99.90
15815;DHT22;8008;50.024;8.172;2023-12-28T13:59:02;10.70;99.90
15815;DHT22;8008;50.024;8.172;2023-12-28T14:01:30;10.70;99.90
15815;DHT22;8008;50.024;8.172;2023-12-28T14:03:58;10.60;99.90
15815;DHT22;8008;50.024;8.172;2023-12-28T14:06:26;10.60;99.90
15815;DHT22;8008;50.024;8.172;2023-12-28T14:08:54;10.50;99.90
15815;DHT22;8008;50.024;8.172;2023-12-28T14:11:25;10.40;99.90
15815;DHT22;8008;50.024;8.172;2023-12-28T14:13:53;10.40;99.90
15815;DHT22;8008;50.024;8.172;2023-12-28T14:16:21;10.40;99.90
15815;DHT22;8008;50.024;8.172;2023-12-28T14:18:49;10.40;99.90
15815;DHT22;8008;50.024;8.172;2023-12-28T14:21:19;10.50;99.90
15815;DHT22;8008;50.024;8.172;2023-12-28T14:23:47;10.50;99.90
15815;DHT22;8008;50.024;8.172;2023-12-28T14:26:17;10.60;99.90
15815;DHT22;8008;50.024;8.172;2023-12-28T14:28:47;10.60;99.90
15815;DHT22;8008;50.024;8.172;2023-12-28T14:31:16;10.60;99.90
15815;DHT22;8008;50.024;8.172;2023-12-28T14:33:45;10.60;99.90
15815;DHT22;8008;50.024;8.172;2023-12-28T14:36:19;10.60;99.90
15815;DHT22;8008;50.024;8.172;2023-12-28T14:38:50;10.50;99.90
15815;DHT22;8008;50.024;8.172;2023-12-28T14:41:18;10.50;99.90
15815;DHT22;8008;50.024;8.172;2023-12-28T14:43:47;10.50;99.90
15815;DHT22;8008;50.024;8.172;2023-12-28T14:46:15;10.50;99.90
15815;DHT22;8008;50.024;8.172;2023-12-28T14:48:43;10.40;99.90
15815;DHT22;8008;50.024;8.172;2023-12-28T14:51:11;10.40;99.90
15815;DHT22;8008;50.024;8.172;2023-12-28T14:53:39;10.40;99.90
15815;DHT22;8008;50.024;8.172;2023-12-28T14:56:07;10.30;99.90
15815;DHT22;8008;50.024;8.172;2023-12-28T14:58:35;10.30;99.90
15815;DHT22;8008;50.024;8.172;2023-12-28T15:01:05;10.30;99.90
15815;DHT22;8008;50.024;8.172;2023-12-28T15:03:33;10.30;99.90
15815;DHT22;8008;50.024;8.172;2023-12-28T15:06:01;10.20;99.90
15815;DHT22;8008;50.024;8.172;2023-12-28T15:08:30;10.10;99.90
15815;DHT22;8008;50.024;8.172;2023-12-28T15:10:59;10.10;99.90
15815;DHT22;8008;50.024;8.172;2023-12-28T15:13:27;10.00;99.90
15815;DHT22;8008;50.024;8.172;2023-12-28T15:15:56;10.00;99.90
15815;DHT22;8008;50.024;8.172;2023-12-28T15:18:26;10.00;99.90
15815;DHT22;8008;50.024;8.172;2023-12-28T15:20:55;9.90;99.90
15815;DHT22;8008;50.024;8.172;2023-12-28T15:23:24;9.90;99.90
15815;DHT22;8008;50.024;8.172;2023-12-28T15:25:53;9.80;99.90
15815;DHT22;8008;50.024;8.172;2023-12-28T15:28:22;9.80;99.90
15815;DHT22;8008;50.024;8.172;2023-12-28T15:30:50;9.80;99.90
15815;DHT22;8008;50.024;8.172;2023-12-28T15:33:18;9.80;99.90
15815;DHT22;8008;50.024;8.172;2023-12-28T15:35:48;9.80;99.90
15815;DHT22;8008;50.024;8.172;2023-12-28T15:38:16;9.70;99.90
15815;DHT22;8008;50.024;8.172;2023-12-28T15:40:46;9.70;99.90
15815;DHT22;8008;50.024;8.172;2023-12-28T15:43:14;9.70;99.90
15815;DHT22;8008;50.024;8.172;2023-12-28T15:45:42;9.70;99.90
15815;DHT22;8008;50.024;8.172;2023-12-28T15:48:10;9.70;99.90
15815;DHT22;8008;50.024;8.172;2023-12-28T15:50:38;9.70;99.90
15815;DHT22;8008;50.024;8.172;2023-12-28T15:53:07;9.60;99.90
15815;DHT22;8008;50.024;8.172;2023-12-28T15:55:36;9.60;99.90
15815;DHT22;8008;50.024;8.172;2023-12-28T15:58:06;9.60;99.90
15815;DHT22;8008;50.024;8.172;2023-12-28T16:00:34;9.60;99.90
15815;DHT22;8008;50.024;8.172;2023-12-28T16:03:02;9.60;99.90
15815;DHT22;8008;50.024;8.172;2023-12-28T16:05:30;9.60;99.90
15815;DHT22;8008;50.024;8.172;2023-12-28T16:07:59;9.60;99.90
15815;DHT22;8008;50.024;8.172;2023-12-28T16:10:28;9.60;99.90
15815;DHT22;8008;50.024;8.172;2023-12-28T16:12:56;9.60;99.90
15815;DHT22;8008;50.024;8.172;2023-12-28T16:15:26;9.60;99.90
15815;DHT22;8008;50.024;8.172;2023-12-28T16:17:56;9.50;99.90
15815;DHT22;8008;50.024;8.172;2023-12-28T16:20:26;9.60;99.90
15815;DHT22;8008;50.024;8.172;2023-12-28T16:22:54;9.50;99.90
15815;DHT22;8008;50.024;8.172;2023-12-28T16:25:22;9.50;99.90
15815;DHT22;8008;50.024;8.172;2023-12-28T16:27:51;9.50;99.90
15815;DHT22;8008;50.024;8.172;2023-12-28T16:30:21;9.50;99.90
15815;DHT22;8008;50.024;8.172;2023-12-28T16:32:49;9.50;99.90
15815;DHT22;8008;50.024;8.172;2023-12-28T16:35:17;9.50;99.90
15815;DHT22;8008;50.024;8.172;2023-12-28T16:37:45;9.60;99.90
15815;DHT22;8008;50.024;8.172;2023-12-28T16:40:13;9.60;99.90
15815;DHT22;8008;50.024;8.172;2023-12-28T16:42:42;9.70;99.90
15815;DHT22;8008;50.024;8.172;2023-12-28T16:45:11;9.80;99.90
15815;DHT22;8008;50.024;8.172;2023-12-28T16:47:40;9.80;99.90
15815;DHT22;8008;50.024;8.172;2023-12-28T16:50:09;9.80;99.90
15815;DHT22;8008;50.024;8.172;2023-12-28T16:52:37;9.70;99.90
15815;DHT22;8008;50.024;8.172;2023-12-28T16:55:05;9.70;99.90
15815;DHT22;8008;50.024;8.172;2023-12-28T16:57:34;9.60;99.90
15815;DHT22;8008;50.024;8.172;2023-12-28T17:00:02;9.60;99.90
15815;DHT22;8008;50.024;8.172;2023-12-28T17:02:39;9.50;99.90
15815;DHT22;8008;50.024;8.172;2023-12-28T17:05:08;9.50;99.90
15815;DHT22;8008;50.024;8.172;2023-12-28T17:07:37;9.40;99.90
15815;DHT22;8008;50.024;8.172;2023-12-28T17:10:06;9.40;99.90
15815;DHT22;8008;50.024;8.172;2023-12-28T17:12:36;9.40;99.90
15815;DHT22;8008;50.024;8.172;2023-12-28T17:15:07;9.30;99.90
15815;DHT22;8008;50.024;8.172;2023-12-28T17:17:36;9.30;99.90
15815;DHT22;8008;50.024;8.172;2023-12-28T17:20:06;9.30;99.90
15815;DHT22;8008;50.024;8.172;2023-12-28T17:22:41;9.30;99.90
15815;DHT22;8008;50.024;8.172;2023-12-28T17:25:18;9.30;99.90
15815;DHT22;8008;50.024;8.172;2023-12-28T17:27:53;9.30;99.90
15815;DHT22;8008;50.024;8.172;2023-12-28T17:30:23;9.20;99.90
15815;DHT22;8008;50.024;8.172;2023-12-28T17:32:55;9.20;99.90
15815;DHT22;8008;50.024;8.172;2023-12-28T17:35:27;9.20;99.90
15815;DHT22;8008;50.024;8.172;2023-12-28T17:37:55;9.20;99.90
15815;DHT22;8008;50.024;8.172;2023-12-28T17:40:25;9.20;99.90
15815;DHT22;8008;50.024;8.172;2023-12-28T17:42:55;9.10;99.90
15815;DHT22;8008;50.024;8.172;2023-12-28T17:45:30;9.20;99.90
15815;DHT22;8008;50.024;8.172;2023-12-28T17:48:03;9.10;99.90
15815;DHT22;8008;50.024;8.172;2023-12-28T17:50:36;9.10;99.90
15815;DHT22;8008;50.024;8.172;2023-12-28T17:53:06;9.10;99.90
15815;DHT22;8008;50.024;8.172;2023-12-28T17:55:34;9.10;99.90
15815;DHT22;8008;50.024;8.172;2023-12-28T17:58:02;9.10;99.90
15815;DHT22;8008;50.024;8.172;2023-12-28T18:00:31;9.10;99.90
15815;DHT22;8008;50.024;8.172;2023-12-28T18:02:59;9.00;99.90
15815;DHT22;8008;50.024;8.172;2023-12-28T18:05:27;9.00;99.90
15815;DHT22;8008;50.024;8.172;2023-12-28T18:07:56;9.00;99.90
15815;DHT22;8008;50.024;8.172;2023-12-28T18:10:25;9.00;99.90
15815;DHT22;8008;50.024;8.172;2023-12-28T18:12:54;8.90;99.90
15815;DHT22;8008;50.024;8.172;2023-12-28T18:15:22;9.00;99.90
15815;DHT22;8008;50.024;8.172;2023-12-28T18:17:50;9.00;99.90
15815;DHT22;8008;50.024;8.172;2023-12-28T18:20:19;8.90;99.90
15815;DHT22;8008;50.024;8.172;2023-12-28T18:22:47;9.00;99.90
15815;DHT22;8008;50.024;8.172;2023-12-28T18:25:16;8.90;99.90
15815;DHT22;8008;50.024;8.172;2023-12-28T18:27:44;8.90;99.90
15815;DHT22;8008;50.024;8.172;2023-12-28T18:30:12;9.00;99.90
15815;DHT22;8008;50.024;8.172;2023-12-28T18:32:40;9.00;99.90
15815;DHT22;8008;50.024;8.172;2023-12-28T18:35:08;8.90;99.90
15815;DHT22;8008;50.024;8.172;2023-12-28T18:37:36;8.90;99.90
15815;DHT22;8008;50.024;8.172;2023-12-28T18:40:06;8.90;99.90
15815;DHT22;8008;50.024;8.172;2023-12-28T18:42:36;8.90;99.90
15815;DHT22;8008;50.024;8.172;2023-12-28T18:45:05;8.90;99.90
15815;DHT22;8008;50.024;8.172;2023-12-28T18:47:33;8.90;99.90
15815;DHT22;8008;50.024;8.172;2023-12-28T18:50:02;8.90;99.90
15815;DHT22;8008;50.024;8.172;2023-12-28T18:52:30;8.90;99.90
15815;DHT22;8008;50.024;8.172;2023-12-28T18:54:58;8.90;99.90
15815;DHT22;8008;50.024;8.172;2023-12-28T18:57:27;8.90;99.90
15815;DHT22;8008;50.024;8.172;2023-12-28T18:59:56;8.90;99.90
15815;DHT22;8008;50.024;8.172;2023-12-28T19:02:24;8.90;99.90
15815;DHT22;8008;50.024;8.172;2023-12-28T19:04:53;8.90;99.90
15815;DHT22;8008;50.024;8.172;2023-12-28T19:07:22;8.90;99.90
15815;DHT22;8008;50.024;8.172;2023-12-28T19:09:50;8.90;99.90
15815;DHT22;8008;50.024;8.172;2023-12-28T19:12:18;8.90;99.90
15815;DHT22;8008;50.024;8.172;2023-12-28T19:14:46;8.90;99.90
15815;DHT22;8008;50.024;8.172;2023-12-28T19:17:15;8.90;99.90
15815;DHT22;8008;50.024;8.172;2023-12-28T19:19:43;8.90;99.90
15815;DHT22;8008;50.024;8.172;2023-12-28T19:22:11;8.90;99.90
15815;DHT22;8008;50.024;8.172;2023-12-28T19:24:40;8.90;99.90
15815;DHT22;8008;50.024;8.172;2023-12-28T19:27:08;8.90;99.90
15815;DHT22;8008;50.024;8.172;2023-12-28T19:29:36;8.80;99.90
15815;DHT22;8008;50.024;8.172;2023-12-28T19:32:05;8.80;99.90
15815;DHT22;8008;50.024;8.172;2023-12-28T19:34:34;8.80;99.90
15815;DHT22;8008;50.024;8.172;2023-12-28T19:37:02;8.80;99.90
15815;DHT22;8008;50.024;8.172;2023-12-28T19:39:31;8.80;99.90
15815;DHT22;8008;50.024;8.172;2023-12-28T19:41:59;8.80;99.90
15815;DHT22;8008;50.024;8.172;2023-12-28T19:44:26;8.80;99.90
15815;DHT22;8008;50.024;8.172;2023-12-28T19:46:54;8.80;99.90
15815;DHT22;8008;50.024;8.172;2023-12-28T19:49:22;8.80;99.90
15815;DHT22;8008;50.024;8.172;2023-12-28T19:51:55;8.80;99.90
15815;DHT22;8008;50.024;8.172;2023-12-28T19:54:23;8.80;99.90
15815;DHT22;8008;50.024;8.172;2023-12-28T19:56:51;8.90;99.90
15815;DHT22;8008;50.024;8.172;2023-12-28T19:59:20;8.90;99.90
15815;DHT22;8008;50.024;8.172;2023-12-28T20:01:48;8.90;99.90
15815;DHT22;8008;50.024;8.172;2023-12-28T20:04:16;8.90;99.90
15815;DHT22;8008;50.024;8.172;2023-12-28T20:06:44;8.90;99.90